sensor_id;sensor_type;location;lat;lon;timestamp;pressure;altitude;pressure_sealevel;temperature;humidity
53270;BME280;39159;45.634;9.420;2022-10-22T00:01:01;98917.69;;;16.22;100.00
53270;BME280;39159;45.634;9.420;2022-10-22T00:03:27;98916.53;;;16.23;100.00
53270;BME280;39159;45.634;9.420;2022-10-22T00:05:52;98909.09;;;16.23;100.00
53270;BME280;39159;45.634;9.420;2022-10-22T00:08:18;98901.50;;;16.20;100.00
53270;BME280;39159;45.634;9.420;2022-10-22T00:10:43;98889.38;;;16.21;100.00
53270;BME280;39159;45.634;9.420;2022-10-22T00:13:10;98887.06;;;16.23;100.00
53270;BME280;39159;45.634;9.420;2022-10-22T00:15:35;98888.31;;;16.26;100.00
53270;BME280;39159;45.634;9.420;2022-10-22T00:18:01;98883.63;;;16.26;100.00
53270;BME280;39159;45.634;9.420;2022-10-22T00:20:26;98877.84;;;16.31;100.00
53270;BME280;39159;45.634;9.420;2022-10-22T00:22:51;98880.28;;;16.33;100.00
53270;BME280;39159;45.634;9.420;2022-10-22T00:25:17;98854.69;;;16.32;100.00
53270;BME280;39159;45.634;9.420;2022-10-22T00:27:42;98866.16;;;16.34;100.00
53270;BME280;39159;45.634;9.420;2022-10-22T00:30:08;98866.16;;;16.34;100.00
53270;BME280;39159;45.634;9.420;2022-10-22T00:32:33;98855.03;;;16.31;100.00
53270;BME280;39159;45.634;9.420;2022-10-22T00:34:59;98853.78;;;16.28;100.00
53270;BME280;39159;45.634;9.420;2022-10-22T00:37:24;98859.16;;;16.25;100.00
53270;BME280;39159;45.634;9.420;2022-10-22T00:39:50;98852.53;;;16.26;100.00
53270;BME280;39159;45.634;9.420;2022-10-22T00:42:19;98850.56;;;16.26;100.00
53270;BME280;39159;45.634;9.420;2022-10-22T00:47:35;98826.94;;;16.25;100.00
53270;BME280;39159;45.634;9.420;2022-10-22T00:50:03;98835.28;;;16.29;100.00
53270;BME280;39159;45.634;9.420;2022-10-22T00:52:29;98848.72;;;16.30;100.00
53270;BME280;39159;45.634;9.420;2022-10-22T00:54:56;98849.19;;;16.32;100.00
53270;BME280;39159;45.634;9.420;2022-10-22T00:57:21;98841.59;;;16.29;100.00
53270;BME280;39159;45.634;9.420;2022-10-22T00:59:47;98853.44;;;16.30;100.00
53270;BME280;39159;45.634;9.420;2022-10-22T01:02:13;98862.16;;;16.32;100.00
53270;BME280;39159;45.634;9.420;2022-10-22T01:04:39;98881.44;;;16.32;100.00
53270;BME280;39159;45.634;9.420;2022-10-22T01:07:05;98869.97;;;16.30;100.00
53270;BME280;39159;45.634;9.420;2022-10-22T01:09:39;98868.81;;;16.31;100.00
53270;BME280;39159;45.634;9.420;2022-10-22T01:12:22;98848.28;;;16.28;100.00
53270;BME280;39159;45.634;9.420;2022-10-22T01:17:56;98829.78;;;16.29;100.00
53270;BME280;39159;45.634;9.420;2022-10-22T01:25:55;98807.88;;;16.32;100.00
53270;BME280;39159;45.634;9.420;2022-10-22T01:31:06;98800.41;;;16.33;100.00
53270;BME280;39159;45.634;9.420;2022-10-22T01:33:34;98790.97;;;16.34;100.00
53270;BME280;39159;45.634;9.420;2022-10-22T01:36:01;98795.34;;;16.35;100.00
53270;BME280;39159;45.634;9.420;2022-10-22T01:38:28;98796.50;;;16.34;100.00
53270;BME280;39159;45.634;9.420;2022-10-22T01:40:54;98781.94;;;16.33;100.00
53270;BME280;39159;45.634;9.420;2022-10-22T01:43:20;98781.94;;;16.33;100.00
53270;BME280;39159;45.634;9.420;2022-10-22T01:45:50;98775.97;;;16.31;100.00
53270;BME280;39159;45.634;9.420;2022-10-22T01:56:15;98785.13;;;16.35;100.00
53270;BME280;39159;45.634;9.420;2022-10-22T02:01:31;98788.44;;;16.41;100.00
53270;BME280;39159;45.634;9.420;2022-10-22T02:04:04;98788.91;;;16.43;100.00
53270;BME280;39159;45.634;9.420;2022-10-22T02:06:32;98781.44;;;16.44;100.00
53270;BME280;39159;45.634;9.420;2022-10-22T02:08:59;98777.44;;;16.41;100.00
53270;BME280;39159;45.634;9.420;2022-10-22T02:11:26;98779.47;;;16.44;100.00
53270;BME280;39159;45.634;9.420;2022-10-22T02:13:55;98767.75;;;16.47;100.00
53270;BME280;39159;45.634;9.420;2022-10-22T02:16:36;98770.94;;;16.49;100.00
53270;BME280;39159;45.634;9.420;2022-10-22T02:19:10;98765.81;;;16.48;100.00
53270;BME280;39159;45.634;9.420;2022-10-22T02:21:38;98769.47;;;16.52;100.00
53270;BME280;39159;45.634;9.420;2022-10-22T02:24:04;98769.03;;;16.50;100.00
53270;BME280;39159;45.634;9.420;2022-10-22T02:26:38;98788.75;;;16.52;100.00
53270;BME280;39159;45.634;9.420;2022-10-22T02:29:14;98772.22;;;16.52;100.00
53270;BME280;39159;45.634;9.420;2022-10-22T02:31:44;98773.47;;;16.54;100.00
53270;BME280;39159;45.634;9.420;2022-10-22T02:34:15;98779.44;;;16.56;100.00
53270;BME280;39159;45.634;9.420;2022-10-22T02:36:44;98754.63;;;16.56;100.00
53270;BME280;39159;45.634;9.420;2022-10-22T02:39:12;98753.38;;;16.54;100.00
53270;BME280;39159;45.634;9.420;2022-10-22T02:41:38;98758.44;;;16.52;100.00
53270;BME280;39159;45.634;9.420;2022-10-22T02:44:08;98734.00;;;16.50;100.00
53270;BME280;39159;45.634;9.420;2022-10-22T02:46:33;98735.13;;;16.49;100.00
53270;BME280;39159;45.634;9.420;2022-10-22T02:48:58;98741.03;;;16.48;100.00
53270;BME280;39159;45.634;9.420;2022-10-22T02:51:24;98742.16;;;16.47;100.00
53270;BME280;39159;45.634;9.420;2022-10-22T02:53:49;98741.72;;;16.45;100.00
53270;BME280;39159;45.634;9.420;2022-10-22T02:56:15;98752.50;;;16.50;100.00
53270;BME280;39159;45.634;9.420;2022-10-22T02:58:40;98740.31;;;16.51;100.00
53270;BME280;39159;45.634;9.420;2022-10-22T03:01:06;98754.19;;;16.54;100.00
53270;BME280;39159;45.634;9.420;2022-10-22T03:03:31;98761.63;;;16.54;100.00
53270;BME280;39159;45.634;9.420;2022-10-22T03:05:57;98750.97;;;16.52;100.00
53270;BME280;39159;45.634;9.420;2022-10-22T03:08:22;98743.50;;;16.53;100.00
53270;BME280;39159;45.634;9.420;2022-10-22T03:10:47;98755.25;;;16.50;100.00
53270;BME280;39159;45.634;9.420;2022-10-22T03:13:13;98759.13;;;16.49;100.00
53270;BME280;39159;45.634;9.420;2022-10-22T03:15:38;98754.34;;;16.46;100.00
53270;BME280;39159;45.634;9.420;2022-10-22T03:18:03;98735.41;;;16.44;100.00
53270;BME280;39159;45.634;9.420;2022-10-22T03:20:29;98736.13;;;16.41;100.00
53270;BME280;39159;45.634;9.420;2022-10-22T03:22:55;98741.97;;;16.40;100.00
53270;BME280;39159;45.634;9.420;2022-10-22T03:25:23;98746.22;;;16.37;100.00
53270;BME280;39159;45.634;9.420;2022-10-22T03:27:51;98739.22;;;16.40;100.00
53270;BME280;39159;45.634;9.420;2022-10-22T03:30:18;98744.72;;;16.40;100.00
53270;BME280;39159;45.634;9.420;2022-10-22T03:32:44;98752.53;;;16.37;100.00
53270;BME280;39159;45.634;9.420;2022-10-22T03:35:09;98745.00;;;16.34;100.00
53270;BME280;39159;45.634;9.420;2022-10-22T03:37:35;98750.03;;;16.32;100.00
53270;BME280;39159;45.634;9.420;2022-10-22T03:40:03;98750.28;;;16.27;100.00
53270;BME280;39159;45.634;9.420;2022-10-22T03:42:30;98755.34;;;16.25;100.00
53270;BME280;39159;45.634;9.420;2022-10-22T03:44:55;98765.09;;;16.23;100.00
53270;BME280;39159;45.634;9.420;2022-10-22T03:47:21;98754.34;;;16.17;100.00
53270;BME280;39159;45.634;9.420;2022-10-22T03:49:49;98752.63;;;16.13;100.00
53270;BME280;39159;45.634;9.420;2022-10-22T03:52:14;98759.53;;;16.07;100.00
53270;BME280;39159;45.634;9.420;2022-10-22T03:54:40;98751.41;;;15.98;100.00
53270;BME280;39159;45.634;9.420;2022-10-22T03:57:07;98769.44;;;15.95;100.00
53270;BME280;39159;45.634;9.420;2022-10-22T03:59:36;98770.47;;;15.91;100.00
53270;BME280;39159;45.634;9.420;2022-10-22T04:02:03;98770.03;;;15.89;100.00
53270;BME280;39159;45.634;9.420;2022-10-22T04:04:29;98770.38;;;15.87;100.00
53270;BME280;39159;45.634;9.420;2022-10-22T04:06:54;98764.44;;;15.85;100.00
53270;BME280;39159;45.634;9.420;2022-10-22T04:09:20;98766.94;;;15.78;100.00
53270;BME280;39159;45.634;9.420;2022-10-22T04:11:45;98772.00;;;15.76;100.00
53270;BME280;39159;45.634;9.420;2022-10-22T04:14:11;98773.84;;;15.72;100.00
53270;BME280;39159;45.634;9.420;2022-10-22T04:16:39;98778.88;;;15.70;100.00
53270;BME280;39159;45.634;9.420;2022-10-22T04:19:05;98780.50;;;15.71;100.00
53270;BME280;39159;45.634;9.420;2022-10-22T04:21:30;98784.88;;;15.72;100.00
53270;BME280;39159;45.634;9.420;2022-10-22T04:23:56;98786.78;;;15.71;100.00
53270;BME280;39159;45.634;9.420;2022-10-22T04:26:21;98788.63;;;15.67;100.00
53270;BME280;39159;45.634;9.420;2022-10-22T04:28:48;98783.00;;;15.64;100.00
53270;BME280;39159;45.634;9.420;2022-10-22T04:31:16;98787.81;;;15.54;100.00
53270;BME280;39159;45.634;9.420;2022-10-22T04:33:42;98791.25;;;15.51;100.00
53270;BME280;39159;45.634;9.420;2022-10-22T04:36:09;98801.56;;;15.54;100.00
53270;BME280;39159;45.634;9.420;2022-10-22T04:38:36;98791.25;;;15.51;100.00
53270;BME280;39159;45.634;9.420;2022-10-22T04:41:16;98784.16;;;15.50;100.00
53270;BME280;39159;45.634;9.420;2022-10-22T04:43:42;98788.28;;;15.44;100.00
53270;BME280;39159;45.634;9.420;2022-10-22T04:46:09;98779.56;;;15.42;100.00
53270;BME280;39159;45.634;9.420;2022-10-22T04:48:36;98786.09;;;15.38;100.00
53270;BME280;39159;45.634;9.420;2022-10-22T04:51:02;98780.50;;;15.34;100.00
53270;BME280;39159;45.634;9.420;2022-10-22T04:53:27;98778.44;;;15.31;100.00
53270;BME280;39159;45.634;9.420;2022-10-22T04:55:53;98800.41;;;15.31;100.00
53270;BME280;39159;45.634;9.420;2022-10-22T04:58:19;98808.22;;;15.29;100.00
53270;BME280;39159;45.634;9.420;2022-10-22T05:00:44;98791.25;;;15.27;100.00
53270;BME280;39159;45.634;9.420;2022-10-22T05:03:09;98804.19;;;15.26;100.00
53270;BME280;39159;45.634;9.420;2022-10-22T05:05:35;98801.56;;;15.30;100.00
53270;BME280;39159;45.634;9.420;2022-10-22T05:08:00;98797.13;;;15.25;100.00
53270;BME280;39159;45.634;9.420;2022-10-22T05:10:26;98796.28;;;15.25;100.00
53270;BME280;39159;45.634;9.420;2022-10-22T05:12:52;98787.47;;;15.19;100.00
53270;BME280;39159;45.634;9.420;2022-10-22T05:15:18;98790.31;;;15.23;100.00
53270;BME280;39159;45.634;9.420;2022-10-22T05:17:44;98781.41;;;15.26;100.00
53270;BME280;39159;45.634;9.420;2022-10-22T05:20:10;98764.78;;;15.22;100.00
53270;BME280;39159;45.634;9.420;2022-10-22T05:22:35;98773.72;;;15.19;100.00
53270;BME280;39159;45.634;9.420;2022-10-22T05:25:01;98776.03;;;15.17;100.00
53270;BME280;39159;45.634;9.420;2022-10-22T05:27:26;98784.97;;;15.14;100.00
53270;BME280;39159;45.634;9.420;2022-10-22T05:29:52;98792.06;;;15.15;100.00
53270;BME280;39159;45.634;9.420;2022-10-22T05:32:17;98797.69;;;15.19;100.00
53270;BME280;39159;45.634;9.420;2022-10-22T05:34:42;98797.69;;;15.19;100.00
53270;BME280;39159;45.634;9.420;2022-10-22T05:37:09;98800.06;;;15.20;100.00
53270;BME280;39159;45.634;9.420;2022-10-22T05:39:34;98789.19;;;15.24;100.00
53270;BME280;39159;45.634;9.420;2022-10-22T05:42:02;98792.88;;;15.28;100.00
53270;BME280;39159;45.634;9.420;2022-10-22T05:44:27;98793.31;;;15.30;100.00
53270;BME280;39159;45.634;9.420;2022-10-22T05:46:53;98799.75;;;15.34;100.00
53270;BME280;39159;45.634;9.420;2022-10-22T05:49:18;98804.09;;;15.35;100.00
53270;BME280;39159;45.634;9.420;2022-10-22T05:51:44;98806.13;;;15.38;100.00
53270;BME280;39159;45.634;9.420;2022-10-22T05:54:15;98801.56;;;15.42;100.00
53270;BME280;39159;45.634;9.420;2022-10-22T05:56:42;98796.06;;;15.42;100.00
53270;BME280;39159;45.634;9.420;2022-10-22T05:59:09;98789.44;;;15.43;100.00
53270;BME280;39159;45.634;9.420;2022-10-22T06:01:34;98796.19;;;15.46;100.00
53270;BME280;39159;45.634;9.420;2022-10-22T06:04:02;98799.50;;;15.39;100.00
53270;BME280;39159;45.634;9.420;2022-10-22T06:06:32;98807.53;;;15.44;100.00
53270;BME280;39159;45.634;9.420;2022-10-22T06:09:19;98820.47;;;15.44;100.00
53270;BME280;39159;45.634;9.420;2022-10-22T06:11:46;98817.41;;;15.45;100.00
53270;BME280;39159;45.634;9.420;2022-10-22T06:14:12;98811.44;;;15.43;100.00
53270;BME280;39159;45.634;9.420;2022-10-22T06:16:38;98819.31;;;15.45;100.00
53270;BME280;39159;45.634;9.420;2022-10-22T06:19:05;98813.50;;;15.46;100.00
53270;BME280;39159;45.634;9.420;2022-10-22T06:21:31;98814.28;;;15.47;100.00
53270;BME280;39159;45.634;9.420;2022-10-22T06:23:58;98816.94;;;15.43;100.00
53270;BME280;39159;45.634;9.420;2022-10-22T06:26:23;98811.91;;;15.45;100.00
53270;BME280;39159;45.634;9.420;2022-10-22T06:28:49;98816.69;;;15.48;100.00
53270;BME280;39159;45.634;9.420;2022-10-22T06:31:14;98819.91;;;15.50;100.00
53270;BME280;39159;45.634;9.420;2022-10-22T06:33:40;98823.13;;;15.52;100.00
53270;BME280;39159;45.634;9.420;2022-10-22T06:36:09;98834.59;;;15.54;100.00
53270;BME280;39159;45.634;9.420;2022-10-22T06:38:35;98837.44;;;15.58;100.00
53270;BME280;39159;45.634;9.420;2022-10-22T06:41:02;98848.91;;;15.60;100.00
53270;BME280;39159;45.634;9.420;2022-10-22T06:43:28;98849.34;;;15.62;100.00
53270;BME280;39159;45.634;9.420;2022-10-22T06:45:58;98851.78;;;15.64;100.00
53270;BME280;39159;45.634;9.420;2022-10-22T06:48:24;98852.56;;;15.64;100.00
53270;BME280;39159;45.634;9.420;2022-10-22T06:50:50;98852.56;;;15.64;100.00
53270;BME280;39159;45.634;9.420;2022-10-22T06:53:15;98864.38;;;15.65;100.00
53270;BME280;39159;45.634;9.420;2022-10-22T06:55:41;98862.91;;;15.67;100.00
53270;BME280;39159;45.634;9.420;2022-10-22T06:58:06;98868.53;;;15.71;100.00
53270;BME280;39159;45.634;9.420;2022-10-22T07:00:31;98878.50;;;15.75;100.00
53270;BME280;39159;45.634;9.420;2022-10-22T07:02:58;98879.28;;;15.76;100.00
53270;BME280;39159;45.634;9.420;2022-10-22T07:05:23;98884.13;;;15.79;100.00
53270;BME280;39159;45.634;9.420;2022-10-22T07:07:48;98888.59;;;15.84;100.00
53270;BME280;39159;45.634;9.420;2022-10-22T07:10:14;98890.31;;;15.88;100.00
53270;BME280;39159;45.634;9.420;2022-10-22T07:12:39;98895.13;;;15.91;100.00
53270;BME280;39159;45.634;9.420;2022-10-22T07:15:05;98899.03;;;15.90;100.00
53270;BME280;39159;45.634;9.420;2022-10-22T07:17:30;98903.38;;;15.91;100.00
53270;BME280;39159;45.634;9.420;2022-10-22T07:19:56;98903.38;;;15.91;100.00
53270;BME280;39159;45.634;9.420;2022-10-22T07:22:21;98897.88;;;15.91;100.00
53270;BME280;39159;45.634;9.420;2022-10-22T07:24:47;98899.50;;;15.92;100.00
53270;BME280;39159;45.634;9.420;2022-10-22T07:27:12;98911.41;;;15.97;100.00
53270;BME280;39159;45.634;9.420;2022-10-22T07:29:37;98899.72;;;16.00;100.00
53270;BME280;39159;45.634;9.420;2022-10-22T07:32:03;98909.81;;;16.08;100.00
53270;BME280;39159;45.634;9.420;2022-10-22T07:34:29;98910.72;;;16.12;100.00
53270;BME280;39159;45.634;9.420;2022-10-22T07:36:55;98910.13;;;16.19;100.00
53270;BME280;39159;45.634;9.420;2022-10-22T07:39:21;98911.94;;;16.27;100.00
53270;BME280;39159;45.634;9.420;2022-10-22T07:41:47;98916.53;;;16.35;100.00
53270;BME280;39159;45.634;9.420;2022-10-22T07:44:12;98922.16;;;16.39;100.00
53270;BME280;39159;45.634;9.420;2022-10-22T07:46:39;98923.41;;;16.41;100.00
53270;BME280;39159;45.634;9.420;2022-10-22T07:49:04;98933.38;;;16.33;100.00
53270;BME280;39159;45.634;9.420;2022-10-22T07:51:29;98943.63;;;16.33;100.00
53270;BME280;39159;45.634;9.420;2022-10-22T07:53:55;98949.81;;;16.30;100.00
53270;BME280;39159;45.634;9.420;2022-10-22T07:56:20;98958.41;;;16.28;100.00
53270;BME280;39159;45.634;9.420;2022-10-22T07:58:46;98955.53;;;16.25;100.00
53270;BME280;39159;45.634;9.420;2022-10-22T08:01:11;98942.81;;;16.20;100.00
53270;BME280;39159;45.634;9.420;2022-10-22T08:03:37;98949.34;;;16.15;100.00
53270;BME280;39159;45.634;9.420;2022-10-22T08:06:02;98961.63;;;16.18;100.00
53270;BME280;39159;45.634;9.420;2022-10-22T08:08:28;98967.03;;;16.14;100.00
53270;BME280;39159;45.634;9.420;2022-10-22T08:10:55;98970.38;;;16.08;100.00
53270;BME280;39159;45.634;9.420;2022-10-22T08:13:22;98972.28;;;16.07;100.00
53270;BME280;39159;45.634;9.420;2022-10-22T08:15:48;98973.31;;;16.03;100.00
53270;BME280;39159;45.634;9.420;2022-10-22T08:18:14;98977.81;;;15.95;100.00
53270;BME280;39159;45.634;9.420;2022-10-22T08:20:40;98968.75;;;15.94;100.00
53270;BME280;39159;45.634;9.420;2022-10-22T08:23:05;98976.88;;;15.91;100.00
53270;BME280;39159;45.634;9.420;2022-10-22T08:25:31;98974.59;;;15.93;100.00
53270;BME280;39159;45.634;9.420;2022-10-22T08:27:57;98981.25;;;15.92;100.00
53270;BME280;39159;45.634;9.420;2022-10-22T08:30:22;98976.09;;;15.90;100.00
53270;BME280;39159;45.634;9.420;2022-10-22T08:32:48;98980.91;;;15.93;100.00
53270;BME280;39159;45.634;9.420;2022-10-22T08:35:14;98988.03;;;15.94;100.00
53270;BME280;39159;45.634;9.420;2022-10-22T08:37:39;98975.75;;;15.92;100.00
53270;BME280;39159;45.634;9.420;2022-10-22T08:40:05;98976.56;;;15.92;100.00
53270;BME280;39159;45.634;9.420;2022-10-22T08:50:46;98992.03;;;15.97;100.00
53270;BME280;39159;45.634;9.420;2022-10-22T08:53:16;99004.44;;;16.03;100.00
53270;BME280;39159;45.634;9.420;2022-10-22T08:55:43;99000.97;;;16.06;100.00
53270;BME280;39159;45.634;9.420;2022-10-22T09:00:58;99002.84;;;16.14;100.00
53270;BME280;39159;45.634;9.420;2022-10-22T09:06:17;98997.78;;;16.29;100.00
53270;BME280;39159;45.634;9.420;2022-10-22T09:08:44;98995.69;;;16.38;100.00
53270;BME280;39159;45.634;9.420;2022-10-22T09:11:30;98998.91;;;16.52;100.00
53270;BME280;39159;45.634;9.420;2022-10-22T09:13:57;98994.78;;;16.58;100.00
53270;BME280;39159;45.634;9.420;2022-10-22T09:16:42;98999.69;;;16.65;100.00
53270;BME280;39159;45.634;9.420;2022-10-22T09:19:32;98992.09;;;16.74;100.00
53270;BME280;39159;45.634;9.420;2022-10-22T09:24:37;99001.41;;;16.70;100.00
53270;BME280;39159;45.634;9.420;2022-10-22T09:27:11;99010.94;;;16.72;100.00
53270;BME280;39159;45.634;9.420;2022-10-22T09:29:37;99004.50;;;16.81;100.00
53270;BME280;39159;45.634;9.420;2022-10-22T09:32:03;99008.41;;;16.92;100.00
53270;BME280;39159;45.634;9.420;2022-10-22T09:34:28;99013.72;;;17.13;100.00
53270;BME280;39159;45.634;9.420;2022-10-22T09:37:03;99010.09;;;17.25;100.00
53270;BME280;39159;45.634;9.420;2022-10-22T09:39:40;99003.56;;;17.45;100.00
53270;BME280;39159;45.634;9.420;2022-10-22T09:42:09;99008.84;;;17.50;100.00
53270;BME280;39159;45.634;9.420;2022-10-22T09:44:36;99000.31;;;17.55;100.00
53270;BME280;39159;45.634;9.420;2022-10-22T09:47:06;99009.00;;;17.70;100.00
53270;BME280;39159;45.634;9.420;2022-10-22T09:49:34;99009.22;;;17.93;100.00
53270;BME280;39159;45.634;9.420;2022-10-22T09:52:00;99007.00;;;18.14;100.00
53270;BME280;39159;45.634;9.420;2022-10-22T09:59:32;99014.66;;;18.72;100.00
53270;BME280;39159;45.634;9.420;2022-10-22T10:04:34;99023.22;;;18.67;100.00
53270;BME280;39159;45.634;9.420;2022-10-22T10:07:14;99016.19;;;18.54;100.00
53270;BME280;39159;45.634;9.420;2022-10-22T10:09:40;99021.72;;;18.54;100.00
53270;BME280;39159;45.634;9.420;2022-10-22T10:12:21;99033.22;;;18.56;100.00
53270;BME280;39159;45.634;9.420;2022-10-22T10:20:20;99053.47;;;18.44;100.00
53270;BME280;39159;45.634;9.420;2022-10-22T10:23:11;99051.34;;;18.37;100.00
53270;BME280;39159;45.634;9.420;2022-10-22T10:25:52;99044.03;;;18.29;100.00
53270;BME280;39159;45.634;9.420;2022-10-22T10:34:28;99053.56;;;18.16;100.00
53270;BME280;39159;45.634;9.420;2022-10-22T10:37:24;99048.03;;;18.16;100.00
53270;BME280;39159;45.634;9.420;2022-10-22T10:43:01;99058.66;;;18.30;100.00
53270;BME280;39159;45.634;9.420;2022-10-22T10:51:29;99062.56;;;18.44;100.00
53270;BME280;39159;45.634;9.420;2022-10-22T10:56:44;99064.88;;;18.42;100.00
53270;BME280;39159;45.634;9.420;2022-10-22T11:05:31;99076.81;;;18.47;100.00
53270;BME280;39159;45.634;9.420;2022-10-22T11:08:19;99059.97;;;18.52;100.00
53270;BME280;39159;45.634;9.420;2022-10-22T11:10:49;99054.78;;;18.66;100.00
53270;BME280;39159;45.634;9.420;2022-10-22T11:16:11;99057.06;;;18.96;100.00
53270;BME280;39159;45.634;9.420;2022-10-22T11:22:02;99056.41;;;19.02;100.00
53270;BME280;39159;45.634;9.420;2022-10-22T11:24:38;99060.41;;;19.05;100.00
53270;BME280;39159;45.634;9.420;2022-10-22T11:30:01;99055.25;;;19.23;100.00
53270;BME280;39159;45.634;9.420;2022-10-22T11:32:27;99054.16;;;19.47;100.00
53270;BME280;39159;45.634;9.420;2022-10-22T11:34:55;99053.88;;;19.72;100.00
53270;BME280;39159;45.634;9.420;2022-10-22T11:37:25;99062.63;;;19.74;100.00
53270;BME280;39159;45.634;9.420;2022-10-22T11:39:56;99062.72;;;19.77;100.00
53270;BME280;39159;45.634;9.420;2022-10-22T12:09:06;99045.47;;;20.34;100.00
53270;BME280;39159;45.634;9.420;2022-10-22T12:11:37;99049.22;;;20.68;100.00
53270;BME280;39159;45.634;9.420;2022-10-22T12:16:52;99051.97;;;20.41;100.00
53270;BME280;39159;45.634;9.420;2022-10-22T12:24:24;99035.78;;;20.70;100.00
53270;BME280;39159;45.634;9.420;2022-10-22T12:26:50;99038.31;;;20.82;100.00
53270;BME280;39159;45.634;9.420;2022-10-22T12:29:18;99038.63;;;21.04;100.00
53270;BME280;39159;45.634;9.420;2022-10-22T12:31:44;99041.72;;;21.29;100.00
53270;BME280;39159;45.634;9.420;2022-10-22T12:34:17;99050.28;;;21.47;100.00
53270;BME280;39159;45.634;9.420;2022-10-22T12:36:43;99050.72;;;21.49;100.00
53270;BME280;39159;45.634;9.420;2022-10-22T12:39:17;99044.28;;;21.79;100.00
53270;BME280;39159;45.634;9.420;2022-10-22T12:41:43;99047.34;;;22.07;100.00
53270;BME280;39159;45.634;9.420;2022-10-22T12:44:11;99046.88;;;21.98;98.65
53270;BME280;39159;45.634;9.420;2022-10-22T12:46:38;99038.22;;;22.07;99.22
53270;BME280;39159;45.634;9.420;2022-10-22T12:49:07;99042.28;;;22.17;94.17
53270;BME280;39159;45.634;9.420;2022-10-22T12:51:35;99040.03;;;22.29;94.72
53270;BME280;39159;45.634;9.420;2022-10-22T12:54:12;99038.16;;;22.44;94.77
53270;BME280;39159;45.634;9.420;2022-10-22T12:56:39;99037.19;;;22.74;92.37
53270;BME280;39159;45.634;9.420;2022-10-22T12:59:17;99028.16;;;22.98;93.36
53270;BME280;39159;45.634;9.420;2022-10-22T13:01:44;99024.31;;;23.14;92.32
53270;BME280;39159;45.634;9.420;2022-10-22T13:07:02;99028.63;;;23.01;90.72
53270;BME280;39159;45.634;9.420;2022-10-22T13:09:40;99024.66;;;23.02;88.56
53270;BME280;39159;45.634;9.420;2022-10-22T13:12:08;99021.53;;;23.14;87.71
53270;BME280;39159;45.634;9.420;2022-10-22T13:14:39;99027.13;;;23.21;87.05
53270;BME280;39159;45.634;9.420;2022-10-22T13:17:36;99024.97;;;22.96;86.59
53270;BME280;39159;45.634;9.420;2022-10-22T13:20:01;99030.50;;;22.89;88.36
53270;BME280;39159;45.634;9.420;2022-10-22T13:22:34;99033.00;;;23.02;87.36
53270;BME280;39159;45.634;9.420;2022-10-22T13:30:21;99025.47;;;23.09;86.11
53270;BME280;39159;45.634;9.420;2022-10-22T13:32:57;99029.09;;;23.17;85.76
53270;BME280;39159;45.634;9.420;2022-10-22T13:35:26;99034.28;;;23.22;87.01
53270;BME280;39159;45.634;9.420;2022-10-22T13:37:52;99034.94;;;22.97;88.48
53270;BME280;39159;45.634;9.420;2022-10-22T13:40:18;99042.03;;;22.84;87.25
53270;BME280;39159;45.634;9.420;2022-10-22T13:42:44;99033.63;;;22.81;87.81
53270;BME280;39159;45.634;9.420;2022-10-22T13:45:09;99033.56;;;22.70;86.98
53270;BME280;39159;45.634;9.420;2022-10-22T13:47:35;99030.84;;;22.81;86.44
53270;BME280;39159;45.634;9.420;2022-10-22T13:50:03;99029.69;;;22.82;87.59
53270;BME280;39159;45.634;9.420;2022-10-22T13:52:34;99025.13;;;22.55;85.40
53270;BME280;39159;45.634;9.420;2022-10-22T13:55:00;99033.53;;;22.63;84.38
53270;BME280;39159;45.634;9.420;2022-10-22T13:57:25;99034.75;;;22.69;86.16
53270;BME280;39159;45.634;9.420;2022-10-22T13:59:51;99030.47;;;22.82;86.55
53270;BME280;39159;45.634;9.420;2022-10-22T14:02:16;99041.66;;;22.89;86.73
53270;BME280;39159;45.634;9.420;2022-10-22T14:04:44;99039.72;;;22.97;86.84
53270;BME280;39159;45.634;9.420;2022-10-22T14:07:14;99046.06;;;22.97;84.21
53270;BME280;39159;45.634;9.420;2022-10-22T14:09:41;99036.00;;;22.75;84.84
53270;BME280;39159;45.634;9.420;2022-10-22T14:12:15;99046.97;;;22.53;85.72
53270;BME280;39159;45.634;9.420;2022-10-22T14:14:41;99044.16;;;22.46;86.50
53270;BME280;39159;45.634;9.420;2022-10-22T14:17:14;99045.31;;;22.42;87.55
53270;BME280;39159;45.634;9.420;2022-10-22T14:19:45;99041.97;;;22.25;88.34
53270;BME280;39159;45.634;9.420;2022-10-22T14:22:15;99045.16;;;22.24;88.91
53270;BME280;39159;45.634;9.420;2022-10-22T14:24:42;99057.41;;;22.19;90.17
53270;BME280;39159;45.634;9.420;2022-10-22T14:27:10;99053.31;;;22.06;89.49
53270;BME280;39159;45.634;9.420;2022-10-22T14:29:36;99054.88;;;22.03;89.54
53270;BME280;39159;45.634;9.420;2022-10-22T14:32:01;99051.69;;;22.01;89.60
53270;BME280;39159;45.634;9.420;2022-10-22T14:34:27;99057.91;;;21.91;88.92
53270;BME280;39159;45.634;9.420;2022-10-22T14:36:52;99056.97;;;21.76;90.74
53270;BME280;39159;45.634;9.420;2022-10-22T14:39:18;99052.47;;;21.64;91.58
53270;BME280;39159;45.634;9.420;2022-10-22T14:41:43;99054.03;;;21.62;91.74
53270;BME280;39159;45.634;9.420;2022-10-22T14:44:12;99060.25;;;21.51;93.26
53270;BME280;39159;45.634;9.420;2022-10-22T14:46:38;99056.53;;;21.40;93.58
53270;BME280;39159;45.634;9.420;2022-10-22T14:49:06;99054.94;;;21.39;92.75
53270;BME280;39159;45.634;9.420;2022-10-22T14:51:31;99052.41;;;21.27;94.50
53270;BME280;39159;45.634;9.420;2022-10-22T14:53:57;99049.19;;;21.25;94.93
53270;BME280;39159;45.634;9.420;2022-10-22T14:56:22;99052.31;;;21.20;94.95
53270;BME280;39159;45.634;9.420;2022-10-22T14:58:48;99056.94;;;21.08;97.21
53270;BME280;39159;45.634;9.420;2022-10-22T15:01:13;99048.94;;;21.03;96.86
53270;BME280;39159;45.634;9.420;2022-10-22T15:03:39;99045.25;;;20.96;96.24
53270;BME280;39159;45.634;9.420;2022-10-22T15:06:04;99061.00;;;20.88;96.17